Time;durP1;ratioP1;P1;durP2;ratioP2;P2;SDS_P1;SDS_P2;PMS_P1;PMS_P2;Temp;Humidity;BMP_temperature;BMP_pressure;BME280_temperature;BME280_humidity;BME280_pressure;Samples;Min_cycle;Max_cycle;Signal;HPM_P1;HPM_P2
2023/02/28 00:04:28;;;;;;;4.82;3.60;;;;;;;1.32;100.00;103174.13;10588740;28;20375;-72
2023/02/28 00:09:29;;;;;;;5.10;3.25;;;;;;;1.55;100.00;103171.06;10589923;28;20035;-72
2023/02/28 00:14:30;;;;;;;6.63;3.13;;;;;;;1.70;100.00;103161.38;10590064;28;20032;-72
2023/02/28 00:19:30;;;;;;;5.32;4.45;;;;;;;1.86;100.00;103182.78;10588495;28;20088;-72
2023/02/28 00:24:31;;;;;;;4.50;4.10;;;;;;;1.97;100.00;103177.69;10589244;28;20063;-72
2023/02/28 00:29:31;;;;;;;4.63;3.67;;;;;;;2.11;100.00;103184.94;10590727;28;20471;-73
2023/02/28 00:34:37;;;;;;;11.73;4.57;;;;;;;2.21;100.00;103191.50;10589799;28;20368;-72
2023/02/28 00:39:38;;;;;;;4.00;3.58;;;;;;;2.30;100.00;103185.63;10572305;28;20020;-72
2023/02/28 00:44:38;;;;;;;8.13;4.32;;;;;;;2.35;100.00;103181.81;10589035;28;20063;-72
2023/02/28 00:49:39;;;;;;;6.00;3.95;;;;;;;2.35;100.00;103177.31;10588689;28;20494;-72
2023/02/28 00:54:39;;;;;;;3.83;3.55;;;;;;;2.38;100.00;103174.47;10587679;28;20043;-73
2023/02/28 00:59:40;;;;;;;8.32;4.50;;;;;;;2.34;100.00;103172.94;10587064;28;20066;-72
2023/02/28 01:04:40;;;;;;;5.53;3.00;;;;;;;2.38;100.00;103181.63;10588651;28;20176;-73
2023/02/28 01:09:41;;;;;;;4.43;3.20;;;;;;;2.40;100.00;103183.28;10586100;28;20106;-72
2023/02/28 01:14:41;;;;;;;4.63;3.35;;;;;;;2.46;100.00;103188.28;10586678;28;20066;-72
2023/02/28 01:19:42;;;;;;;13.27;4.45;;;;;;;2.51;100.00;103183.50;10586483;28;20038;-72
2023/02/28 01:24:42;;;;;;;5.15;4.00;;;;;;;2.50;100.00;103179.13;10587265;28;20122;-72
2023/02/28 01:29:43;;;;;;;3.97;3.63;;;;;;;2.55;100.00;103189.53;10587857;28;20086;-72
2023/02/28 01:34:43;;;;;;;5.93;4.30;;;;;;;2.60;100.00;103187.47;10585928;28;20048;-72
2023/02/28 01:39:44;;;;;;;3.92;3.58;;;;;;;2.66;100.00;103176.41;10587708;28;20035;-72
2023/02/28 01:45:20;;;;;;;3.42;3.22;;;;;;;2.71;100.00;103185.03;10586841;28;20487;-72
2023/02/28 01:50:23;;;;;;;4.10;3.50;;;;;;;2.73;100.00;103174.25;10586880;28;20426;-72
2023/02/28 01:55:23;;;;;;;4.45;4.00;;;;;;;2.78;100.00;103164.13;10568013;28;20031;-73
2023/02/28 02:00:26;;;;;;;4.75;3.92;;;;;;;2.84;100.00;103157.53;10585313;28;20519;-72
2023/02/28 02:05:30;;;;;;;7.57;3.80;;;;;;;2.86;100.00;103158.31;10584301;28;20356;-72
2023/02/28 02:10:33;;;;;;;4.50;3.58;;;;;;;2.82;100.00;103148.75;10566731;28;20042;-72
2023/02/28 02:15:37;;;;;;;3.95;3.50;;;;;;;2.83;100.00;103150.47;10600568;27;20040;-72
2023/02/28 02:20:47;;;;;;;7.13;5.00;;;;;;;2.83;100.00;103151.34;10582067;28;20027;-72
2023/02/28 02:25:50;;;;;;;3.60;3.22;;;;;;;2.88;100.00;103157.28;10566576;28;20100;-72
2023/02/28 02:31:02;;;;;;;16.63;5.03;;;;;;;2.92;100.00;103142.75;10582863;28;20110;-72
2023/02/28 02:36:10;;;;;;;6.97;4.40;;;;;;;2.96;100.00;103133.56;10568556;28;20042;-73
2023/02/28 02:41:22;;;;;;;9.75;3.65;;;;;;;3.00;100.00;103132.47;10584534;28;20024;-72
2023/02/28 02:46:35;;;;;;;6.03;4.35;;;;;;;3.04;100.00;103130.44;10582861;28;20032;-72
2023/02/28 02:51:35;;;;;;;3.60;3.35;;;;;;;3.08;100.00;103128.44;10581907;28;20027;-72
2023/02/28 02:56:35;;;;;;;4.65;3.72;;;;;;;3.11;100.00;103130.94;10582170;28;20043;-72
2023/02/28 03:01:36;;;;;;;8.15;4.82;;;;;;;3.15;100.00;103135.13;10581680;28;20521;-72
2023/02/28 03:06:36;;;;;;;8.85;4.32;;;;;;;3.18;100.00;103133.13;10582234;28;20055;-72
2023/02/28 03:11:37;;;;;;;8.82;4.55;;;;;;;3.20;100.00;103133.91;10582686;28;20510;-72
2023/02/28 03:16:40;;;;;;;5.90;4.40;;;;;;;3.23;100.00;103131.03;10564838;28;20036;-72
2023/02/28 03:22:14;;;;;;;7.07;3.83;;;;;;;3.26;100.00;103138.03;10581998;28;20035;-72
2023/02/28 03:27:27;;;;;;;5.82;4.00;;;;;;;3.32;100.00;103153.72;10577182;28;20059;-72
2023/02/28 03:32:31;;;;;;;9.25;4.75;;;;;;;3.35;100.00;103142.81;10582534;28;20473;-72
2023/02/28 03:37:35;;;;;;;4.95;4.45;;;;;;;3.37;100.00;103143.56;10564789;28;20028;-72
2023/02/28 03:42:36;;;;;;;10.13;4.72;;;;;;;3.39;100.00;103144.34;10581527;28;20034;-72
2023/02/28 03:47:45;;;;;;;7.78;4.72;;;;;;;3.39;100.00;103139.00;10580835;28;20024;-72
2023/02/28 03:53:01;;;;;;;7.85;4.65;;;;;;;3.38;100.00;103134.59;10564218;28;20066;-72
2023/02/28 03:58:20;;;;;;;5.47;4.97;;;;;;;3.44;100.00;103130.66;10581888;28;20034;-72
2023/02/28 04:03:20;;;;;;;6.68;5.63;;;;;;;3.46;100.00;103134.97;10581395;28;20027;-72
2023/02/28 04:08:21;;;;;;;13.07;5.57;;;;;;;3.47;100.00;103125.97;10581589;28;20032;-73
2023/02/28 04:13:22;;;;;;;7.43;5.70;;;;;;;3.47;100.00;103127.78;10581584;28;20036;-72
2023/02/28 04:18:22;;;;;;;4.60;4.20;;;;;;;3.51;100.00;103132.00;10581781;28;20032;-72
2023/02/28 04:23:22;;;;;;;7.50;5.55;;;;;;;3.48;100.00;103135.75;10581317;28;20081;-72
2023/02/28 04:28:23;;;;;;;13.85;6.55;;;;;;;3.52;100.00;103139.09;10563453;28;20090;-72
2023/02/28 04:33:23;;;;;;;6.50;5.85;;;;;;;3.54;100.00;103137.16;10597161;28;20031;-72
2023/02/28 04:38:24;;;;;;;10.43;5.68;;;;;;;3.56;100.00;103140.59;10580993;28;20046;-72
2023/02/28 04:43:26;;;;;;;9.60;5.75;;;;;;;3.59;100.00;103152.94;10585120;28;20077;-72
2023/02/28 04:48:30;;;;;;;7.55;6.63;;;;;;;3.58;100.00;103156.59;10587941;28;20077;-72
2023/02/28 04:53:31;;;;;;;7.05;5.80;;;;;;;3.58;100.00;103152.09;10587224;28;20106;-72
2023/02/28 04:58:32;;;;;;;7.43;6.53;;;;;;;3.53;100.00;103156.88;10586808;28;20023;-72
2023/02/28 05:03:32;;;;;;;7.80;6.00;;;;;;;3.45;100.00;103164.53;10587787;28;20024;-72
2023/02/28 05:08:33;;;;;;;7.05;6.35;;;;;;;3.43;100.00;103161.94;10587501;28;20123;-72
2023/02/28 05:13:34;;;;;;;9.02;8.07;;;;;;;3.43;100.00;103155.72;10589885;28;20395;-72
2023/02/28 05:18:35;;;;;;;10.02;7.18;;;;;;;3.34;100.00;103153.63;10587928;28;20379;-71
2023/02/28 05:23:35;;;;;;;11.23;8.80;;;;;;;3.24;100.00;103147.97;10587805;28;20089;-71
2023/02/28 05:28:35;;;;;;;13.25;7.65;;;;;;;3.12;100.00;103156.75;10585982;28;20075;-71
2023/02/28 05:33:36;;;;;;;12.65;7.80;;;;;;;2.91;100.00;103153.56;10587312;28;20043;-71
2023/02/28 05:38:36;;;;;;;11.25;6.25;;;;;;;2.88;100.00;103148.41;10587332;28;20162;-71
2023/02/28 05:43:37;;;;;;;8.50;7.53;;;;;;;2.86;100.00;103155.66;10522325;28;20491;-71
2023/02/28 05:48:37;;;;;;;9.13;6.55;;;;;;;2.82;100.00;103156.78;10584082;28;20126;-71
2023/02/28 05:53:38;;;;;;;7.78;6.35;;;;;;;2.80;100.00;103155.03;10585582;28;20042;-71
2023/02/28 05:58:38;;;;;;;10.98;7.50;;;;;;;2.87;100.00;103149.31;10586175;28;20538;-72
2023/02/28 06:03:39;;;;;;;9.63;7.90;;;;;;;2.92;100.00;103145.44;10584804;27;20089;-71
2023/02/28 06:08:40;;;;;;;9.15;7.50;;;;;;;2.88;100.00;103141.22;10525362;28;20035;-70
2023/02/28 06:13:40;;;;;;;8.48;7.68;;;;;;;2.79;100.00;103147.97;10584944;28;20043;-70
2023/02/28 06:18:41;;;;;;;9.15;8.27;;;;;;;2.87;100.00;103152.91;10584971;28;20027;-71
2023/02/28 06:23:41;;;;;;;13.02;7.97;;;;;;;2.82;100.00;103151.44;10585825;28;20032;-70
2023/02/28 06:28:41;;;;;;;9.55;8.55;;;;;;;2.82;100.00;103149.63;10566475;28;20048;-70
2023/02/28 06:33:42;;;;;;;11.25;7.68;;;;;;;2.88;100.00;103140.38;10585386;28;20152;-71
2023/02/28 06:38:43;;;;;;;11.68;7.97;;;;;;;2.88;100.00;103154.59;10583980;28;20027;-70
2023/02/28 06:43:43;;;;;;;8.32;7.18;;;;;;;2.80;100.00;103152.38;10583824;28;20039;-70
2023/02/28 06:48:44;;;;;;;10.55;8.85;;;;;;;2.72;100.00;103164.50;10601109;27;20027;-71
2023/02/28 06:53:45;;;;;;;9.18;7.85;;;;;;;2.66;100.00;103160.38;10582343;28;20035;-71
2023/02/28 06:58:49;;;;;;;14.82;7.82;;;;;;;2.51;100.00;103167.47;10584361;28;20043;-71
2023/02/28 07:03:52;;;;;;;6.38;5.63;;;;;;;2.29;100.00;103175.00;10584340;28;20027;-70
2023/02/28 07:08:53;;;;;;;6.93;5.85;;;;;;;2.15;100.00;103185.63;10581759;28;20070;-71
2023/02/28 07:13:54;;;;;;;8.25;5.18;;;;;;;2.04;100.00;103184.44;10581560;28;20074;-71
2023/02/28 07:18:55;;;;;;;13.57;5.45;;;;;;;2.03;100.00;103193.38;10581581;28;20459;-71
2023/02/28 07:23:56;;;;;;;8.43;4.75;;;;;;;2.02;100.00;103194.31;10583275;28;20115;-71
2023/02/28 07:28:56;;;;;;;4.05;3.72;;;;;;;1.84;100.00;103198.00;10581982;28;20036;-71
2023/02/28 07:33:57;;;;;;;5.68;5.07;;;;;;;1.52;100.00;103205.94;10583039;28;20482;-70
2023/02/28 07:38:58;;;;;;;7.07;6.38;;;;;;;1.33;100.00;103211.41;10581963;28;20451;-71
2023/02/28 07:43:59;;;;;;;5.70;4.13;;;;;;;1.26;100.00;103217.16;10582036;28;20384;-71
2023/02/28 07:49:00;;;;;;;11.18;5.15;;;;;;;1.13;100.00;103216.94;10582753;28;20036;-70
2023/02/28 07:54:00;;;;;;;7.95;5.18;;;;;;;0.96;100.00;103215.13;10549298;28;20115;-69
2023/02/28 07:59:01;;;;;;;5.70;5.20;;;;;;;0.90;100.00;103218.09;10564571;28;20472;-69
2023/02/28 08:04:01;;;;;;;9.00;6.88;;;;;;;0.78;100.00;103224.06;10581873;28;20577;-69
2023/02/28 08:09:02;;;;;;;5.22;4.72;;;;;;;0.77;100.00;103217.00;10579937;28;20081;-69
2023/02/28 08:14:02;;;;;;;14.75;5.82;;;;;;;0.70;100.00;103229.75;10581038;28;20100;-69
2023/02/28 08:19:03;;;;;;;6.38;5.85;;;;;;;0.67;100.00;103229.91;10587646;28;20035;-69
2023/02/28 08:24:03;;;;;;;7.82;5.85;;;;;;;0.55;100.00;103228.72;10590892;28;20047;-68
2023/02/28 08:29:04;;;;;;;8.57;6.50;;;;;;;0.56;100.00;103226.91;10571603;28;20056;-68
2023/02/28 08:34:06;;;;;;;9.10;6.32;;;;;;;0.59;100.00;103232.09;10588005;28;20486;-68
2023/02/28 08:39:06;;;;;;;9.18;6.93;;;;;;;0.62;100.00;103230.13;10587532;28;20038;-68
2023/02/28 08:44:07;;;;;;;7.43;6.55;;;;;;;0.65;100.00;103223.78;10588663;28;20028;-68
2023/02/28 08:49:10;;;;;;;7.97;7.20;;;;;;;0.66;100.00;103229.03;10588333;28;20051;-69
2023/02/28 08:54:15;;;;;;;8.98;8.18;;;;;;;0.74;100.00;103218.00;10589100;28;20038;-70
2023/02/28 08:59:16;;;;;;;7.17;5.90;;;;;;;0.82;100.00;103220.28;10589207;28;20024;-70
2023/02/28 09:04:16;;;;;;;5.97;5.05;;;;;;;1.00;100.00;103210.50;10588433;28;20256;-71
2023/02/28 09:09:17;;;;;;;6.97;6.28;;;;;;;1.21;100.00;103208.50;10587687;28;20028;-71
2023/02/28 09:14:17;;;;;;;7.05;6.35;;;;;;;1.37;100.00;103209.44;10586505;28;20039;-71
2023/02/28 09:19:17;;;;;;;6.78;5.63;;;;;;;1.68;100.00;103200.66;10587250;28;20035;-71
2023/02/28 09:24:19;;;;;;;6.55;5.85;;;;;;;1.88;100.00;103209.38;10590483;28;20036;-71
2023/02/28 09:29:20;;;;;;;9.43;5.95;;;;;;;1.99;100.00;103202.50;10585389;28;20075;-70
2023/02/28 09:34:20;;;;;;;7.70;7.10;;;;;;;2.24;100.00;103212.69;10587028;28;20063;-70
2023/02/28 09:39:21;;;;;;;14.88;7.38;;;;;;;2.37;100.00;103210.19;10586041;28;20122;-70
2023/02/28 09:44:24;;;;;;;8.98;7.00;;;;;;;2.34;100.00;103213.03;10553111;28;20084;-70
2023/02/28 09:49:28;;;;;;;8.88;5.50;;;;;;;2.48;100.00;103207.75;10601685;27;20084;-71
2023/02/28 09:54:30;;;;;;;6.75;6.05;;;;;;;2.59;100.00;103200.94;10568227;28;20510;-71
2023/02/28 09:59:58;;;;;;;7.72;6.97;;;;;;;2.77;100.00;103207.88;10585631;28;20409;-71
2023/02/28 10:05:00;;;;;;;6.57;5.63;;;;;;;2.92;100.00;103215.00;10586236;28;20024;-72
2023/02/28 10:10:02;;;;;;;11.13;6.18;;;;;;;2.84;100.00;103217.28;10584445;28;20031;-72
2023/02/28 10:15:03;;;;;;;5.97;5.10;;;;;;;2.48;100.00;103222.94;10600989;27;20028;-72
2023/02/28 10:20:34;;;;;;;5.70;4.97;;;;;;;2.71;100.00;103208.25;10583053;28;20035;-72
2023/02/28 10:25:35;;;;;;;6.05;5.45;;;;;;;2.90;100.00;103216.91;10575046;28;20505;-73
2023/02/28 10:30:41;;;;;;;4.93;4.50;;;;;;;3.09;100.00;103211.31;10566592;28;20048;-72
2023/02/28 10:35:42;;;;;;;5.70;4.23;;;;;;;2.81;100.00;103206.78;10549312;28;20049;-73
2023/02/28 10:40:42;;;;;;;4.78;4.22;;;;;;;2.80;100.00;103216.59;10584147;28;20023;-73
2023/02/28 10:46:09;;;;;;;4.30;3.90;;;;;;;2.81;100.00;103217.47;10582706;28;20043;-73
2023/02/28 10:51:14;;;;;;;6.28;5.30;;;;;;;2.69;100.00;103210.16;10579109;28;20047;-72
2023/02/28 10:56:21;;;;;;;4.28;3.90;;;;;;;2.71;100.00;103216.25;10584157;28;20044;-72
2023/02/28 11:01:38;;;;;;;7.00;4.18;;;;;;;3.03;100.00;103207.22;10582168;28;20024;-72
2023/02/28 11:06:39;;;;;;;3.88;3.58;;;;;;;3.43;100.00;103199.44;10584295;28;20027;-72
2023/02/28 11:11:46;;;;;;;4.30;3.63;;;;;;;4.06;100.00;103200.84;10583245;28;20027;-72
2023/02/28 11:16:47;;;;;;;3.10;2.85;;;;;;;5.44;100.00;103185.34;10564383;28;20032;-72
2023/02/28 11:21:54;;;;;;;2.95;2.75;;;;;;;6.18;98.65;103184.50;10581626;28;20036;-72
2023/02/28 11:26:54;;;;;;;3.95;3.13;;;;;;;6.17;99.38;103180.09;10564789;28;20060;-71
2023/02/28 11:32:19;;;;;;;2.70;2.50;;;;;;;6.29;98.76;103178.34;10581454;28;20383;-71
2023/02/28 11:37:27;;;;;;;3.80;3.15;;;;;;;7.18;91.90;103176.97;10581431;28;20024;-71
2023/02/28 11:42:56;;;;;;;4.15;2.42;;;;;;;7.84;91.15;103177.13;10582248;28;20528;-71
2023/02/28 11:48:09;;;;;;;3.92;3.53;;;;;;;8.06;85.21;103171.69;10580581;28;20126;-71
2023/02/28 11:53:21;;;;;;;3.50;3.00;;;;;;;8.75;100.00;103154.34;10586541;28;20379;-71
2023/02/28 11:58:27;;;;;;;4.53;2.72;;;;;;;8.26;94.94;103155.72;10590464;28;20089;-71
2023/02/28 12:03:44;;;;;;;2.53;2.33;;;;;;;7.50;90.86;103160.09;10606267;27;20372;-71
2023/02/28 12:08:55;;;;;;;1.88;1.73;;;;;;;6.29;78.00;103154.13;10589104;28;20051;-71
2023/02/28 12:14:13;;;;;;;5.13;2.92;;;;;;;7.61;90.02;103155.56;10572519;28;20089;-71
2023/02/28 12:19:25;;;;;;;2.33;2.13;;;;;;;7.67;76.76;103136.19;10591062;28;20024;-71
2023/02/28 12:24:37;;;;;;;2.03;1.80;;;;;;;7.20;71.40;103142.66;10605455;27;20031;-71
2023/02/28 12:35:14;;;;;;;2.13;2.03;;;;;;;7.08;72.10;103128.31;12061784;22;20065;-72
2023/02/28 12:40:23;;;;;;;5.03;2.90;;;;;;;7.61;76.83;103119.66;10322105;28;20049;-72
2023/02/28 12:45:26;;;;;;;1.98;1.88;;;;;;;8.21;71.15;103117.47;10322188;28;20080;-72
2023/02/28 12:50:26;;;;;;;2.25;1.98;;;;;;;8.22;68.67;103127.25;10289883;28;20045;-72
2023/02/28 12:55:57;;;;;;;2.53;2.33;;;;;;;8.67;78.04;103116.31;10305792;28;20045;-72
2023/02/28 13:06:34;;;;;;;1.67;1.58;;;;;;;8.69;63.25;103108.94;11944750;23;20081;-70
2023/02/28 13:11:40;;;;;;;4.40;3.40;;;;;;;8.59;66.65;103096.22;10404365;28;20026;-70
2023/02/28 13:16:57;;;;;;;2.28;2.17;;;;;;;9.07;66.06;103082.16;10419861;28;20033;-70
2023/02/28 13:21:58;;;;;;;1.65;1.55;;;;;;;8.53;56.66;103091.34;10418229;28;20036;-70
2023/02/28 13:27:01;;;;;;;1.95;1.85;;;;;;;8.18;55.05;103082.63;10418439;28;20042;-70
2023/02/28 13:32:08;;;;;;;1.95;1.80;;;;;;;8.20;62.58;103075.25;10417771;28;20033;-70
2023/02/28 13:37:17;;;;;;;2.55;2.35;;;;;;;8.29;64.45;103074.47;10417674;28;20033;-70
2023/02/28 13:42:37;;;;;;;1.70;1.60;;;;;;;8.33;60.14;103065.16;10418941;28;20033;-70
2023/02/28 13:47:40;;;;;;;6.53;3.05;;;;;;;8.20;64.76;103059.06;10401619;28;20045;-70
2023/02/28 13:53:13;;;;;;;3.08;2.78;;;;;;;8.27;60.69;103061.13;10418862;28;20465;-70
2023/02/28 13:58:39;;;;;;;2.05;1.73;;;;;;;8.24;61.91;103052.44;10396268;28;20069;-70
2023/02/28 14:04:06;;;;;;;2.55;2.35;;;;;;;8.30;60.21;103054.63;10420555;28;20376;-70
2023/02/28 14:09:25;;;;;;;2.70;2.53;;;;;;;7.88;59.94;103058.06;10417911;28;20405;-70
2023/02/28 14:14:34;;;;;;;2.50;2.30;;;;;;;7.91;65.44;103038.06;10416515;28;20049;-70
2023/02/28 14:19:36;;;;;;;1.90;1.80;;;;;;;7.97;64.58;103048.34;10416004;28;20116;-70
2023/02/28 14:25:01;;;;;;;9.40;2.65;;;;;;;8.13;75.05;103037.13;10383328;28;20033;-70
2023/02/28 14:30:14;;;;;;;2.88;2.22;;;;;;;8.03;75.53;103042.44;10417244;28;20033;-70
2023/02/28 14:35:18;;;;;;;2.65;2.42;;;;;;;8.12;75.38;103041.66;10416057;28;20385;-70
2023/02/28 14:40:30;;;;;;;3.63;3.33;;;;;;;8.31;88.88;103032.03;10416478;28;20073;-70
2023/02/28 14:45:32;;;;;;;4.20;1.80;;;;;;;8.09;69.29;103033.81;10399143;28;20108;-70
2023/02/28 14:50:34;;;;;;;3.05;2.78;;;;;;;7.95;80.99;103042.25;10398729;28;20108;-70
2023/02/28 14:55:35;;;;;;;2.42;2.22;;;;;;;8.02;87.28;103029.09;10414699;28;20104;-70
2023/02/28 15:00:37;;;;;;;3.47;3.17;;;;;;;7.73;76.78;103023.41;10415092;28;20034;-70
2023/02/28 15:05:37;;;;;;;4.60;2.42;;;;;;;7.57;72.38;103019.28;10382307;28;20053;-70
2023/02/28 15:10:40;;;;;;;2.58;2.40;;;;;;;7.82;82.97;103026.22;10415826;28;20120;-70
2023/02/28 15:15:59;;;;;;;14.95;2.47;;;;;;;7.60;71.41;103027.13;10415440;28;20048;-70
2023/02/28 15:21:03;;;;;;;3.17;2.38;;;;;;;7.29;70.56;103038.69;10414273;28;20164;-70
2023/02/28 15:26:03;;;;;;;2.05;1.95;;;;;;;6.86;73.72;103028.63;10397177;28;20025;-70
2023/02/28 15:31:04;;;;;;;2.55;2.03;;;;;;;6.49;64.17;103036.88;10380748;28;20025;-70
2023/02/28 15:36:06;;;;;;;2.83;2.58;;;;;;;6.10;64.34;103047.03;10379713;28;20030;-70
2023/02/28 15:41:26;;;;;;;2.97;2.65;;;;;;;5.77;63.35;103035.06;10396857;28;20028;-70
2023/02/28 15:46:27;;;;;;;2.45;2.25;;;;;;;5.71;73.63;103046.31;10398503;28;20393;-70
2023/02/28 15:51:33;;;;;;;3.58;2.70;;;;;;;5.49;69.47;103033.56;10396607;28;20037;-70
2023/02/28 15:56:38;;;;;;;3.55;2.75;;;;;;;5.53;73.89;103032.38;10397108;28;20039;-70
2023/02/28 16:01:38;;;;;;;2.50;2.40;;;;;;;5.49;77.35;103036.25;10396650;28;20026;-70
2023/02/28 16:06:44;;;;;;;2.58;2.38;;;;;;;5.32;69.10;103036.63;10413870;28;20058;-70
2023/02/28 16:11:49;;;;;;;2.60;2.40;;;;;;;5.26;71.51;103029.84;10381253;28;20484;-70
2023/02/28 16:16:51;;;;;;;2.15;2.05;;;;;;;5.10;67.58;103031.91;10413153;28;20034;-70
2023/02/28 16:21:52;;;;;;;3.35;3.03;;;;;;;5.11;75.71;103036.34;10412587;28;20120;-70
2023/02/28 16:26:53;;;;;;;3.28;2.67;;;;;;;5.08;77.46;103036.56;10396065;28;20042;-69
2023/02/28 16:31:54;;;;;;;3.22;2.92;;;;;;;4.95;82.92;103030.34;10412468;28;20485;-70
2023/02/28 16:36:54;;;;;;;5.47;3.95;;;;;;;4.88;82.07;103022.72;10417807;28;20041;-70
2023/02/28 16:41:55;;;;;;;3.42;2.67;;;;;;;4.70;87.25;103034.75;10421354;28;20111;-70
2023/02/28 16:46:55;;;;;;;3.60;3.30;;;;;;;4.53;90.91;103035.91;10419695;28;20083;-70
2023/02/28 16:51:55;;;;;;;3.35;2.97;;;;;;;4.42;91.33;103043.81;10419573;28;20038;-70
2023/02/28 16:56:56;;;;;;;5.47;4.25;;;;;;;4.33;91.84;103061.41;10419265;28;20026;-70
2023/02/28 17:01:57;;;;;;;6.97;3.53;;;;;;;4.18;94.76;103057.09;10419863;28;20037;-70
2023/02/28 17:06:57;;;;;;;4.15;3.20;;;;;;;4.10;91.19;103056.72;10405768;28;20516;-70
2023/02/28 17:11:59;;;;;;;4.13;3.72;;;;;;;3.87;93.94;103061.78;10420622;28;20049;-70
2023/02/28 17:16:59;;;;;;;3.47;3.28;;;;;;;3.73;94.24;103067.16;10419538;28;20037;-69
2023/02/28 17:22:00;;;;;;;5.85;4.63;;;;;;;3.57;96.34;103077.16;10419734;28;20041;-70
2023/02/28 17:27:01;;;;;;;4.10;3.80;;;;;;;3.45;97.10;103081.50;10418564;28;20128;-70
2023/02/28 17:32:01;;;;;;;6.25;4.03;;;;;;;3.37;98.37;103081.13;10418635;28;20033;-70
2023/02/28 17:37:01;;;;;;;9.68;4.30;;;;;;;3.30;97.70;103096.72;10417749;28;20049;-70
2023/02/28 17:42:02;;;;;;;8.05;4.28;;;;;;;3.13;97.31;103096.91;10417698;28;20041;-70
2023/02/28 17:47:03;;;;;;;4.75;4.35;;;;;;;2.97;97.27;103105.03;10418958;28;20095;-70
2023/02/28 17:52:03;;;;;;;3.97;3.58;;;;;;;2.90;100.00;103115.22;10418252;28;20064;-70
2023/02/28 17:57:04;;;;;;;4.28;3.70;;;;;;;2.83;99.80;103113.88;10417011;28;20057;-70
2023/02/28 18:02:04;;;;;;;3.72;3.40;;;;;;;2.71;99.67;103125.31;10417665;28;20076;-70
2023/02/28 18:07:09;;;;;;;3.78;3.47;;;;;;;2.58;97.95;103124.31;10417766;28;20489;-70
2023/02/28 18:12:09;;;;;;;4.68;4.28;;;;;;;2.42;98.53;103130.56;10404977;28;20488;-70
2023/02/28 18:17:12;;;;;;;7.78;4.60;;;;;;;2.25;99.40;103136.03;10417302;28;20037;-70
2023/02/28 18:22:12;;;;;;;9.05;4.88;;;;;;;2.09;98.61;103138.72;10383268;28;20483;-70
2023/02/28 18:27:12;;;;;;;5.05;4.65;;;;;;;1.97;98.54;103142.94;10415642;28;20042;-70
2023/02/28 18:32:13;;;;;;;5.43;4.53;;;;;;;1.92;98.91;103152.19;10415990;28;20038;-69
2023/02/28 18:37:14;;;;;;;4.95;4.35;;;;;;;1.86;100.00;103151.56;10415463;28;20041;-70
2023/02/28 18:42:15;;;;;;;7.07;4.32;;;;;;;1.84;99.55;103156.13;10419439;28;20521;-70
2023/02/28 18:47:15;;;;;;;7.97;4.50;;;;;;;1.72;99.13;103151.44;10416138;28;20103;-70
2023/02/28 18:52:16;;;;;;;5.00;4.45;;;;;;;1.51;99.09;103166.84;10416135;28;20045;-70
2023/02/28 18:57:16;;;;;;;7.40;5.45;;;;;;;1.45;99.83;103166.31;10414606;28;20583;-70
2023/02/28 19:02:17;;;;;;;5.88;5.43;;;;;;;1.36;99.56;103163.19;10415105;28;20472;-70
2023/02/28 19:07:17;;;;;;;8.23;6.38;;;;;;;1.29;100.00;103160.94;10415534;28;20148;-70
2023/02/28 19:12:19;;;;;;;5.72;5.22;;;;;;;1.23;100.00;103158.59;10416929;28;20045;-70
2023/02/28 19:17:19;;;;;;;8.20;5.32;;;;;;;1.19;100.00;103154.38;10416355;28;20044;-70
2023/02/28 19:22:20;;;;;;;7.90;5.40;;;;;;;1.17;100.00;103157.97;10415485;28;20037;-70
2023/02/28 19:27:20;;;;;;;14.38;5.85;;;;;;;1.22;100.00;103156.88;10415173;28;20370;-70
2023/02/28 19:32:20;;;;;;;9.82;5.93;;;;;;;1.27;100.00;103162.81;10414384;28;20092;-70
2023/02/28 19:37:21;;;;;;;10.38;6.93;;;;;;;1.25;100.00;103167.41;10414655;28;20045;-70
2023/02/28 19:42:21;;;;;;;7.35;6.15;;;;;;;1.05;100.00;103163.94;10412227;28;20045;-69
2023/02/28 19:47:22;;;;;;;6.20;5.50;;;;;;;0.93;99.71;103173.47;10414037;28;20573;-70
2023/02/28 19:52:23;;;;;;;10.55;6.90;;;;;;;1.00;100.00;103175.81;10413987;28;20091;-71
2023/02/28 19:57:23;;;;;;;8.48;6.95;;;;;;;0.88;100.00;103180.81;10414018;28;20048;-70
2023/02/28 20:02:25;;;;;;;8.15;7.30;;;;;;;0.80;100.00;103176.81;10392660;28;20041;-71
2023/02/28 20:07:25;;;;;;;6.18;5.65;;;;;;;0.73;100.00;103178.94;10401903;28;20063;-71
2023/02/28 20:12:25;;;;;;;7.35;6.63;;;;;;;0.55;100.00;103171.88;10413344;28;20036;-71
2023/02/28 20:17:27;;;;;;;7.80;6.63;;;;;;;0.50;100.00;103176.56;10397712;28;20037;-72
2023/02/28 20:22:27;;;;;;;7.88;6.47;;;;;;;0.45;100.00;103174.13;10387345;28;20087;-72
2023/02/28 20:27:28;;;;;;;7.90;6.95;;;;;;;0.37;100.00;103168.31;10379172;28;20060;-72
2023/02/28 20:32:28;;;;;;;7.72;7.03;;;;;;;0.31;100.00;103176.59;10362088;28;20042;-70
2023/02/28 20:37:29;;;;;;;12.00;7.90;;;;;;;0.17;100.00;103183.47;10379603;28;20117;-70
2023/02/28 20:42:29;;;;;;;12.23;8.35;;;;;;;0.17;100.00;103183.47;10379937;28;20041;-70
2023/02/28 20:47:30;;;;;;;12.20;7.90;;;;;;;0.12;100.00;103185.47;10362253;28;20049;-72
2023/02/28 20:52:30;;;;;;;10.85;8.07;;;;;;;0.18;100.00;103192.31;10413666;28;20041;-72
2023/02/28 20:57:30;;;;;;;11.15;8.80;;;;;;;0.24;100.00;103192.03;10420500;28;20365;-72
2023/02/28 21:02:31;;;;;;;10.23;9.10;;;;;;;0.20;100.00;103191.31;10401300;28;20631;-71
2023/02/28 21:07:31;;;;;;;9.40;8.48;;;;;;;0.13;100.00;103197.00;10418477;28;20094;-70
2023/02/28 21:12:32;;;;;;;11.27;9.38;;;;;;;0.00;100.00;103202.06;10419719;28;20065;-70
2023/02/28 21:17:32;;;;;;;10.43;9.27;;;;;;;-0.12;100.00;103202.63;10418942;28;20065;-71
2023/02/28 21:22:33;;;;;;;11.05;9.95;;;;;;;-0.24;100.00;103206.72;10422633;28;20120;-70
2023/02/28 21:27:33;;;;;;;11.20;9.90;;;;;;;-0.16;100.00;103209.00;10416587;28;20534;-70
2023/02/28 21:32:34;;;;;;;18.15;10.75;;;;;;;-0.11;100.00;103210.53;10418171;28;20124;-70
2023/02/28 21:37:37;;;;;;;12.30;10.48;;;;;;;-0.05;100.00;103212.06;10418659;28;20427;-71
2023/02/28 21:42:37;;;;;;;12.70;11.38;;;;;;;-0.03;100.00;103218.19;10418752;28;20103;-69
2023/02/28 21:47:38;;;;;;;13.40;10.45;;;;;;;-0.05;100.00;103209.41;10418430;28;20079;-69
2023/02/28 21:52:38;;;;;;;15.57;11.07;;;;;;;-0.02;100.00;103217.25;10418461;28;20124;-69
2023/02/28 21:57:38;;;;;;;14.10;9.85;;;;;;;0.06;100.00;103209.72;10418123;28;20128;-70
2023/02/28 22:02:39;;;;;;;18.83;11.30;;;;;;;0.18;100.00;103221.63;10417245;28;20129;-70
2023/02/28 22:07:40;;;;;;;11.98;10.75;;;;;;;0.09;100.00;103214.91;10417719;28;20050;-70
2023/02/28 22:12:41;;;;;;;12.93;11.00;;;;;;;0.12;100.00;103220.09;10417911;28;20043;-70
2023/02/28 22:17:41;;;;;;;14.10;10.63;;;;;;;0.11;100.00;103212.19;10381289;28;20033;-70
2023/02/28 22:22:42;;;;;;;14.85;13.30;;;;;;;0.11;100.00;103204.22;10376827;28;20068;-70
2023/02/28 22:27:42;;;;;;;15.90;13.25;;;;;;;0.01;100.00;103202.91;10382197;28;20065;-70
2023/02/28 22:32:42;;;;;;;15.50;11.65;;;;;;;-0.13;100.00;103212.41;10374504;28;20132;-70
2023/02/28 22:37:43;;;;;;;13.55;11.70;;;;;;;-0.20;100.00;103218.09;10375685;28;20065;-70
2023/02/28 22:42:43;;;;;;;15.68;11.77;;;;;;;-0.28;100.00;103221.13;10375557;28;20045;-70
2023/02/28 22:47:44;;;;;;;20.23;11.30;;;;;;;-0.31;100.00;103229.22;10374381;28;20046;-70
2023/02/28 22:52:45;;;;;;;14.63;13.07;;;;;;;-0.34;100.00;103224.06;10374482;28;20115;-70
2023/02/28 22:57:45;;;;;;;12.05;10.75;;;;;;;-0.40;100.00;103222.53;10377821;28;20045;-70
2023/02/28 23:02:46;;;;;;;15.60;12.88;;;;;;;-0.49;100.00;103222.94;10379227;28;20117;-70
2023/02/28 23:07:46;;;;;;;23.85;12.13;;;;;;;-0.41;100.00;103227.94;10373627;28;20461;-70
2023/02/28 23:12:50;;;;;;;18.42;13.20;;;;;;;-0.37;100.00;103222.38;10374786;28;20129;-70
2023/02/28 23:17:50;;;;;;;15.07;13.52;;;;;;;-0.32;100.00;103224.81;10373170;28;20040;-70
2023/02/28 23:22:51;;;;;;;21.90;13.63;;;;;;;-0.32;100.00;103225.72;10374419;28;20045;-70
2023/02/28 23:27:51;;;;;;;16.92;14.10;;;;;;;-0.30;100.00;103215.84;10374202;28;20389;-70